createdAt,value
2016-08-27T00:04:31.566Z,"    0"
2016-08-27T00:09:28.199Z,"    0"
2016-08-27T00:14:24.958Z,"    0"
2016-08-27T00:19:21.420Z,"    0"
2016-08-27T00:24:17.989Z,"    0"
2016-08-27T00:29:15.515Z,"    0"
2016-08-27T00:34:12.174Z,"    0"
2016-08-27T00:39:08.694Z,"    0"
2016-08-27T00:44:06.691Z,"    0"
2016-08-27T00:49:02.955Z,"    0"
2016-08-27T00:53:59.848Z,"    0"
2016-08-27T00:58:56.458Z,"    0"
2016-08-27T01:03:53.073Z,"    0"
2016-08-27T01:08:51.588Z,"    0"
2016-08-27T01:13:47.697Z,"    0"
2016-08-27T01:18:44.403Z,"    0"
2016-08-27T01:23:41.321Z,"    0"
2016-08-27T01:28:37.907Z,"    0"
2016-08-27T01:33:34.561Z,"    0"
2016-08-27T01:38:31.111Z,"    0"
2016-08-27T01:43:28.000Z,"    0"
2016-08-27T01:48:24.603Z,"    0"
2016-08-27T01:53:21.212Z,"    0"
2016-08-27T01:58:17.920Z,"    0"
2016-08-27T02:03:14.592Z,"    0"
2016-08-27T02:08:11.727Z,"    0"
2016-08-27T02:13:08.419Z,"    0"
2016-08-27T02:18:05.378Z,"    0"
2016-08-27T02:23:01.970Z,"    0"
2016-08-27T02:27:58.542Z,"    0"
2016-08-27T02:32:58.131Z,"    0"
2016-08-27T02:37:54.215Z,"    0"
2016-08-27T02:42:50.916Z,"    0"
2016-08-27T02:47:47.632Z,"    0"
2016-08-27T02:52:44.327Z,"    0"
2016-08-27T02:57:40.963Z,"    0"
2016-08-27T03:02:37.504Z,"    0"
2016-08-27T03:07:34.371Z,"    0"
2016-08-27T03:12:33.609Z,"    0"
2016-08-27T03:17:29.773Z,"    0"
2016-08-27T03:22:26.791Z,"    0"
2016-08-27T03:27:23.543Z,"    0"
2016-08-27T03:32:20.209Z,"    0"
2016-08-27T03:37:19.182Z,"    0"
2016-08-27T03:42:15.206Z,"    0"
2016-08-27T03:47:11.871Z,"    0"
2016-08-27T03:52:08.423Z,"    0"
2016-08-27T03:57:04.968Z,"    0"
2016-08-27T04:02:02.897Z,"    0"
2016-08-27T04:06:59.241Z,"    4"
2016-08-27T04:11:55.697Z,"    4"
2016-08-27T04:16:53.495Z,"    8"
2016-08-27T04:21:49.946Z,"   12"
2016-08-27T04:26:46.639Z,"   20"
2016-08-27T04:31:43.137Z,"   32"
2016-08-27T04:36:39.887Z,"   48"
2016-08-27T04:41:36.360Z,"   72"
2016-08-27T04:46:32.980Z,"   96"
2016-08-27T04:51:29.754Z,"  128"
2016-08-27T04:56:26.369Z,"  172"
2016-08-27T05:01:23.184Z,"  220"
2016-08-27T05:06:20.135Z,"  268"
2016-08-27T05:11:16.910Z,"  332"
2016-08-27T05:16:13.682Z,"  384"
2016-08-27T05:21:10.369Z,"  452"
2016-08-27T05:26:07.000Z,"  536"
2016-08-27T05:31:03.857Z,"  620"
2016-08-27T05:36:00.578Z,"  700"
2016-08-27T05:40:57.415Z,"  796"
2016-08-27T05:45:54.163Z,"  876"
2016-08-27T05:50:50.900Z,"  964"
2016-08-27T05:55:47.426Z," 1036"
2016-08-27T06:00:45.372Z," 1108"
2016-08-27T06:05:41.796Z," 1208"
2016-08-27T06:10:38.322Z," 1332"
2016-08-27T06:15:35.193Z," 1452"
2016-08-27T06:20:31.952Z," 1524"
2016-08-27T06:25:28.698Z," 1552"
2016-08-27T06:30:25.387Z," 1556"
2016-08-27T06:35:22.176Z," 1604"
2016-08-27T06:40:18.861Z," 1620"
2016-08-27T06:45:15.661Z," 1660"
2016-08-27T06:50:12.797Z," 1668"
2016-08-27T06:55:09.460Z," 1708"
2016-08-27T07:00:06.037Z," 1736"
2016-08-27T07:05:02.742Z," 1852"
2016-08-27T07:09:59.301Z," 1932"
2016-08-27T07:14:56.342Z," 1812"
2016-08-27T07:19:53.004Z," 1856"
2016-08-27T07:24:49.779Z," 1948"
2016-08-27T07:29:46.460Z," 1864"
2016-08-27T07:34:43.128Z," 2048"
2016-08-27T07:39:39.965Z," 2076"
2016-08-27T07:44:36.718Z," 2104"
2016-08-27T07:49:33.607Z," 2440"
2016-08-27T07:54:30.292Z," 2260"
2016-08-27T07:59:27.013Z," 6084"
2016-08-27T08:04:26.308Z," 5284"
2016-08-27T08:09:22.680Z,14576
2016-08-27T08:14:20.028Z,15316
2016-08-27T08:19:17.549Z,15660
2016-08-27T08:24:15.187Z,14208
2016-08-27T08:29:12.348Z,14232
2016-08-27T08:34:09.440Z,12632
2016-08-27T08:39:06.489Z," 2976"
2016-08-27T08:44:03.331Z," 2688"
2016-08-27T08:49:00.110Z," 2516"
2016-08-27T08:53:56.793Z," 2368"
2016-08-27T08:58:54.785Z," 2232"
2016-08-27T09:03:50.808Z," 2116"
2016-08-27T09:08:47.129Z," 2028"
2016-08-27T09:13:43.269Z," 1940"
2016-08-27T09:18:39.654Z," 1844"
2016-08-27T09:23:36.077Z," 1796"
2016-08-27T09:28:32.566Z," 1720"
2016-08-27T09:33:29.160Z," 1612"
2016-08-27T09:38:25.665Z," 1560"
2016-08-27T09:43:25.179Z," 1532"
2016-08-27T09:48:21.448Z," 1512"
2016-08-27T09:53:20.493Z," 1496"
2016-08-27T09:58:16.514Z," 1460"
2016-08-27T10:03:13.084Z," 1440"
2016-08-27T10:08:10.069Z," 1408"
2016-08-27T10:13:06.648Z," 1392"
2016-08-27T10:18:03.269Z," 1384"
2016-08-27T10:23:01.061Z," 1364"
2016-08-27T10:27:57.600Z," 1344"
2016-08-27T10:32:54.357Z," 1320"
2016-08-27T10:37:51.068Z," 1288"
2016-08-27T10:42:47.870Z," 1260"
2016-08-27T10:47:44.964Z," 1276"
2016-08-27T10:52:41.617Z," 1224"
2016-08-27T10:57:38.331Z," 1228"
2016-08-27T11:02:35.018Z," 1220"
2016-08-27T11:07:31.816Z," 1208"
2016-08-27T11:12:28.545Z," 1192"
2016-08-27T11:17:25.355Z," 1180"
2016-08-27T11:22:22.101Z," 1148"
2016-08-27T11:27:18.689Z," 1152"
2016-08-27T11:32:15.380Z," 1144"
2016-08-27T11:37:14.478Z," 1120"
2016-08-27T11:42:10.749Z," 1108"
2016-08-27T11:47:08.533Z," 1088"
2016-08-27T11:52:05.367Z," 1072"
2016-08-27T11:57:02.161Z," 1056"
2016-08-27T12:01:59.037Z," 1048"
2016-08-27T12:06:55.769Z," 1040"
2016-08-27T12:11:54.064Z," 1016"
2016-08-27T12:16:50.890Z,"  996"
2016-08-27T12:21:47.590Z,"  980"
2016-08-27T12:26:44.662Z,"  964"
2016-08-27T12:31:41.453Z,"  944"
2016-08-27T12:36:38.151Z,"  924"
2016-08-27T12:41:37.321Z,"  924"
2016-08-27T12:46:33.356Z,"  892"
2016-08-27T12:51:30.107Z,"  888"
2016-08-27T12:56:27.191Z,"  884"
2016-08-27T13:01:23.918Z,"  860"
2016-08-27T13:06:22.061Z,"  852"
2016-08-27T13:11:18.731Z,"  848"
2016-08-27T13:16:15.475Z,"  824"
2016-08-27T13:21:12.035Z,"  760"
2016-08-27T13:26:09.275Z,"  756"
2016-08-27T13:31:06.272Z,"  716"
2016-08-27T13:36:03.149Z,"  700"
2016-08-27T13:40:59.864Z,"  720"
2016-08-27T13:45:56.547Z,"  752"
2016-08-27T13:50:53.213Z,"  700"
2016-08-27T13:55:52.982Z,"  684"
2016-08-27T14:00:49.092Z,"  576"
2016-08-27T14:05:45.764Z,"  680"
2016-08-27T14:10:42.607Z,"  636"
2016-08-27T14:15:39.286Z,"  656"
2016-08-27T14:20:35.888Z,"  680"
2016-08-27T14:25:32.502Z,"  680"
2016-08-27T14:30:29.353Z,"  660"
2016-08-27T14:35:26.116Z,"  672"
2016-08-27T14:40:22.873Z,"  640"
2016-08-27T14:45:21.984Z,"  660"
2016-08-27T14:50:18.133Z,"  656"
2016-08-27T14:55:14.870Z,"  620"
2016-08-27T15:00:11.672Z,"  576"
2016-08-27T15:05:08.451Z,"  592"
2016-08-27T15:10:05.511Z,"  704"
2016-08-27T15:15:02.380Z,"  752"
2016-08-27T15:20:00.360Z,"  828"
2016-08-27T15:24:56.771Z,"  972"
2016-08-27T15:29:53.515Z," 1108"
2016-08-27T15:34:50.246Z," 1168"
2016-08-27T15:39:47.016Z," 1196"
2016-08-27T15:44:43.686Z," 1244"
2016-08-27T15:49:40.504Z," 1276"
2016-08-27T15:54:37.397Z," 1264"
2016-08-27T15:59:34.047Z," 1232"
2016-08-27T16:04:31.000Z," 1112"
2016-08-27T16:09:27.659Z," 1040"
2016-08-27T16:14:24.348Z,"  988"
2016-08-27T16:19:23.660Z,"  964"
2016-08-27T16:24:19.832Z,"  944"
2016-08-27T16:29:18.973Z,"  888"
2016-08-27T16:34:14.989Z,"  856"
2016-08-27T16:39:11.637Z,"  844"
2016-08-27T16:44:08.227Z,"  832"
2016-08-27T16:49:04.983Z,"  796"
2016-08-27T16:54:01.703Z,"  704"
2016-08-27T16:58:58.296Z,"  632"
2016-08-27T17:03:54.996Z,"  568"
2016-08-27T17:08:51.690Z,"  508"
2016-08-27T17:13:48.312Z,"  444"
2016-08-27T17:18:45.010Z,"  384"
2016-08-27T17:23:41.851Z,"  344"
2016-08-27T17:28:38.470Z,"  388"
2016-08-27T17:33:35.426Z,"  340"
2016-08-27T17:38:32.233Z,"  292"
2016-08-27T17:43:28.827Z,"  280"
2016-08-27T17:48:25.593Z,"  240"
2016-08-27T17:53:22.494Z,"  192"
2016-08-27T17:58:19.191Z,"  124"
2016-08-27T18:03:15.786Z,"   76"
2016-08-27T18:08:13.176Z,"   60"
2016-08-27T18:13:09.936Z,"   48"
2016-08-27T18:18:06.723Z,"   36"
2016-08-27T18:23:04.697Z,"   28"
2016-08-27T18:28:01.108Z,"   20"
2016-08-27T18:32:57.773Z,"   12"
2016-08-27T18:37:54.264Z,"    4"
2016-08-27T18:42:51.034Z,"    4"
2016-08-27T18:47:48.867Z,"    4"
2016-08-27T18:52:45.186Z,"    0"
2016-08-27T18:57:41.683Z,"    0"
2016-08-27T19:02:38.401Z,"    0"
2016-08-27T19:07:35.141Z,"    0"
2016-08-27T19:12:33.011Z,"    0"
2016-08-27T19:17:29.477Z,"    0"
2016-08-27T19:22:26.149Z,"    0"
2016-08-27T19:27:23.049Z,"    0"
2016-08-27T19:32:19.650Z,"    0"
2016-08-27T19:37:16.399Z,"    0"
2016-08-27T19:42:13.155Z,"    0"
2016-08-27T19:47:11.257Z,"    0"
2016-08-27T19:52:08.171Z,"    0"
2016-08-27T19:57:04.696Z,"    0"
2016-08-27T20:02:01.337Z,"    0"
2016-08-27T20:06:57.940Z,"    0"
2016-08-27T20:11:54.677Z,"    0"
2016-08-27T20:16:51.496Z,"    0"
2016-08-27T20:21:48.366Z,"    0"
2016-08-27T20:26:45.262Z,"    0"
2016-08-27T20:31:44.458Z,"    0"
2016-08-27T20:36:40.539Z,"    0"
2016-08-27T20:41:37.385Z,"    0"
2016-08-27T20:46:34.128Z,"    0"
2016-08-27T20:51:31.241Z,"    0"
2016-08-27T20:56:28.030Z,"   20"
2016-08-27T21:01:24.557Z,"   24"
2016-08-27T21:06:21.238Z,"    0"
2016-08-27T21:11:18.256Z,"    0"
2016-08-27T21:16:14.750Z,"    0"
2016-08-27T21:21:11.286Z,"    0"
2016-08-27T21:26:08.081Z,"    0"
2016-08-27T21:31:04.863Z,"    0"
2016-08-27T21:36:01.659Z,"    0"
2016-08-27T21:40:58.413Z,"    0"
2016-08-27T21:45:54.932Z,"    0"
2016-08-27T21:50:51.668Z,"    0"
2016-08-27T21:55:48.649Z,"    0"
2016-08-27T22:00:45.162Z,"    0"
2016-08-27T22:05:42.183Z,"    0"
2016-08-27T22:10:38.982Z,"    0"
2016-08-27T22:15:35.917Z,"    0"
2016-08-27T22:20:32.613Z,"    0"
2016-08-27T22:25:29.285Z,"    0"
2016-08-27T22:30:26.249Z,"    0"
2016-08-27T22:35:22.852Z,"    0"
2016-08-27T22:40:19.507Z,"    0"
2016-08-27T22:45:17.492Z,"    0"
2016-08-27T22:50:13.914Z,"    0"
2016-08-27T22:55:10.985Z,"    0"
2016-08-27T23:00:07.573Z,"    0"
2016-08-27T23:05:04.305Z,"    0"
2016-08-27T23:10:01.373Z,"    0"
2016-08-27T23:14:58.111Z,"    0"
2016-08-27T23:19:54.875Z,"    0"
2016-08-27T23:24:51.481Z,"    0"
2016-08-27T23:29:48.224Z,"    0"
2016-08-27T23:34:45.204Z,"    0"
2016-08-27T23:39:41.814Z,"    0"
2016-08-27T23:44:41.041Z,"    0"
2016-08-27T23:49:37.157Z,"    0"
2016-08-27T23:54:33.874Z,"    0"
2016-08-27T23:59:30.391Z,"    0"
